createdAt,value
2016-09-08T00:00:19.557Z,999.68
2016-09-08T00:00:41.400Z,999.67
2016-09-08T00:01:04.213Z,999.95
2016-09-08T00:01:25.985Z,999.94
2016-09-08T00:01:47.713Z,999.77
2016-09-08T00:02:09.479Z,999.58
2016-09-08T00:02:32.213Z,999.58
2016-09-08T00:02:53.934Z,999.47
2016-09-08T00:03:16.699Z,999.53
2016-09-08T00:03:43.227Z,999.59
2016-09-08T00:04:04.964Z,999.45
2016-09-08T00:04:26.712Z,999.48
2016-09-08T00:04:48.443Z,999.73
2016-09-08T00:05:10.175Z,1000.03
2016-09-08T00:05:31.902Z,999.81
2016-09-08T00:05:53.637Z,999.82
2016-09-08T00:06:15.489Z,999.53
2016-09-08T00:06:38.241Z,999.30
2016-09-08T00:07:07.566Z,999.60
2016-09-08T00:07:30.298Z,999.42
2016-09-08T00:07:52.113Z,999.38
2016-09-08T00:08:13.867Z,999.43
2016-09-08T00:08:35.621Z,999.52
2016-09-08T00:08:57.388Z,999.86
2016-09-08T00:09:19.112Z,999.75
2016-09-08T00:09:40.974Z,999.49
2016-09-08T00:10:02.728Z,999.55
2016-09-08T00:10:26.994Z,999.45
2016-09-08T00:11:15.288Z,999.56
2016-09-08T00:11:37.102Z,999.86
2016-09-08T00:12:06.373Z,999.47
2016-09-08T00:12:28.142Z,999.90
2016-09-08T00:12:52.548Z,999.80
2016-09-08T00:13:14.280Z,999.52
2016-09-08T00:13:36.031Z,999.47
2016-09-08T00:13:58.750Z,999.54
2016-09-08T00:14:20.495Z,999.52
2016-09-08T00:14:42.270Z,999.45
2016-09-08T00:15:05.016Z,999.42
2016-09-08T00:15:26.731Z,999.30
2016-09-08T00:15:48.455Z,999.61
2016-09-08T00:16:10.210Z,999.53
2016-09-08T00:16:31.954Z,999.61
2016-09-08T00:16:53.684Z,999.48
2016-09-08T00:17:15.416Z,999.55
2016-09-08T00:17:37.151Z,999.31
2016-09-08T00:17:58.923Z,999.40
2016-09-08T00:18:20.655Z,999.32
2016-09-08T00:18:47.141Z,999.44
2016-09-08T00:19:08.914Z,999.79
2016-09-08T00:19:31.652Z,999.51
2016-09-08T00:19:53.390Z,999.55
2016-09-08T00:20:15.135Z,999.55
2016-09-08T00:20:36.862Z,999.60
2016-09-08T00:20:58.603Z,999.52
2016-09-08T00:21:20.348Z,999.36
2016-09-08T00:21:44.949Z,999.35
2016-09-08T00:22:06.686Z,999.67
2016-09-08T00:22:28.424Z,999.46
2016-09-08T00:22:55.941Z,999.34
2016-09-08T00:23:22.444Z,999.42
2016-09-08T00:23:44.178Z,999.27
2016-09-08T00:24:08.611Z,999.30
2016-09-08T00:24:30.341Z,999.10
2016-09-08T00:24:52.094Z,999.41
2016-09-08T00:25:13.854Z,999.66
2016-09-08T00:25:35.585Z,999.42
2016-09-08T00:25:57.320Z,999.39
2016-09-08T00:26:19.077Z,999.53
2016-09-08T00:26:40.817Z,999.08
2016-09-08T00:27:02.552Z,999.26
2016-09-08T00:27:24.312Z,999.75
2016-09-08T00:27:46.040Z,999.58
2016-09-08T00:28:12.526Z,999.45
2016-09-08T00:28:35.278Z,999.49
2016-09-08T00:29:01.797Z,999.29
2016-09-08T00:29:23.526Z,999.36
2016-09-08T00:29:45.266Z,999.24
2016-09-08T00:30:07.068Z,999.28
2016-09-08T00:30:55.294Z,999.39
2016-09-08T00:31:17.029Z,999.33
2016-09-08T00:31:43.525Z,999.47
2016-09-08T00:32:05.262Z,999.26
2016-09-08T00:32:27.015Z,999.11
2016-09-08T00:32:53.522Z,999.02
2016-09-08T00:33:15.263Z,999.20
2016-09-08T00:33:37.996Z,999.21
2016-09-08T00:34:00.712Z,999.50
2016-09-08T00:34:22.453Z,999.50
2016-09-08T00:34:44.181Z,999.37
2016-09-08T00:35:10.684Z,999.51
2016-09-08T00:35:32.453Z,999.16
2016-09-08T00:35:54.180Z,999.27
2016-09-08T00:36:15.918Z,999.42
2016-09-08T00:36:37.660Z,999.20
2016-09-08T00:37:25.721Z,999.25
2016-09-08T00:37:47.519Z,999.18
2016-09-08T00:38:10.257Z,999.48
2016-09-08T00:38:58.633Z,999.38
2016-09-08T00:39:20.363Z,999.41
2016-09-08T00:39:42.194Z,999.30
2016-09-08T00:40:03.914Z,999.30
2016-09-08T00:40:26.655Z,999.49
2016-09-08T00:40:49.388Z,999.42
2016-09-08T00:41:11.202Z,999.36
2016-09-08T00:41:32.978Z,999.42
2016-09-08T00:41:54.702Z,999.23
2016-09-08T00:42:16.495Z,999.21
2016-09-08T00:42:38.338Z,999.16
2016-09-08T00:43:00.066Z,999.07
2016-09-08T00:43:27.577Z,999.29
2016-09-08T00:43:49.326Z,999.23
2016-09-08T00:44:15.929Z,999.44
2016-09-08T00:44:37.689Z,999.31
2016-09-08T00:45:00.412Z,999.28
2016-09-08T00:45:22.145Z,999.24
2016-09-08T00:45:43.938Z,999.24
2016-09-08T00:46:05.669Z,999.24
2016-09-08T00:46:27.394Z,999.16
2016-09-08T00:46:49.125Z,999.26
2016-09-08T00:47:10.872Z,999.42
2016-09-08T00:47:32.666Z,999.35
2016-09-08T00:47:54.401Z,999.24
2016-09-08T00:48:16.137Z,999.23
2016-09-08T00:48:37.858Z,999.44
2016-09-08T00:48:59.583Z,999.57
2016-09-08T00:49:21.333Z,999.48
2016-09-08T00:49:43.154Z,999.47
2016-09-08T00:50:04.923Z,999.41
2016-09-08T00:50:26.665Z,999.43
2016-09-08T00:50:48.405Z,999.40
2016-09-08T00:51:10.149Z,999.27
2016-09-08T00:51:31.877Z,999.23
2016-09-08T00:51:53.608Z,999.36
2016-09-08T00:52:15.346Z,999.37
2016-09-08T00:52:37.106Z,999.35
2016-09-08T00:52:58.844Z,999.26
2016-09-08T00:53:25.339Z,998.99
2016-09-08T00:53:51.851Z,999.17
2016-09-08T00:54:21.964Z,999.52
2016-09-08T00:54:48.469Z,999.28
2016-09-08T00:55:14.974Z,999.30
2016-09-08T00:55:36.697Z,999.32
2016-09-08T00:55:58.476Z,999.21
2016-09-08T00:56:20.223Z,999.29
2016-09-08T00:56:46.726Z,999.22
2016-09-08T00:57:08.469Z,999.14
2016-09-08T00:57:30.204Z,999.22
2016-09-08T00:57:56.709Z,999.11
2016-09-08T00:58:23.206Z,999.25
2016-09-08T00:58:47.579Z,999.41
2016-09-08T00:59:09.314Z,999.21
2016-09-08T00:59:31.064Z,999.03
2016-09-08T01:00:02.342Z,999.20
2016-09-08T01:00:29.832Z,999.38
2016-09-08T01:00:51.560Z,999.21
2016-09-08T01:01:13.288Z,999.10
2016-09-08T01:01:36.044Z,999.17
2016-09-08T01:01:57.755Z,999.10
2016-09-08T01:02:19.490Z,999.02
2016-09-08T01:02:41.222Z,998.95
2016-09-08T01:03:02.949Z,999.26
2016-09-08T01:03:24.742Z,999.28
2016-09-08T01:03:46.476Z,999.10
2016-09-08T01:04:08.207Z,999.20
2016-09-08T01:04:29.973Z,999.25
2016-09-08T01:04:51.710Z,999.04
2016-09-08T01:05:13.468Z,999.09
2016-09-08T01:05:35.202Z,999.16
2016-09-08T01:05:56.931Z,999.35
2016-09-08T01:06:18.707Z,999.23
2016-09-08T01:06:40.440Z,999.09
2016-09-08T01:07:02.172Z,999.03
2016-09-08T01:07:23.925Z,999.00
2016-09-08T01:07:50.422Z,999.14
2016-09-08T01:08:12.149Z,999.13
2016-09-08T01:08:33.880Z,999.03
2016-09-08T01:08:55.628Z,999.10
2016-09-08T01:09:17.369Z,999.09
2016-09-08T01:09:43.878Z,999.09
2016-09-08T01:10:05.606Z,999.17
2016-09-08T01:10:27.333Z,999.20
2016-09-08T01:10:49.062Z,999.11
2016-09-08T01:11:10.792Z,999.12
2016-09-08T01:11:32.533Z,999.23
2016-09-08T01:11:54.275Z,999.17
2016-09-08T01:12:20.766Z,999.01
2016-09-08T01:12:42.495Z,999.08
2016-09-08T01:13:04.229Z,998.98
2016-09-08T01:13:25.957Z,999.05
2016-09-08T01:13:49.720Z,999.01
2016-09-08T01:14:11.468Z,999.00
2016-09-08T01:14:33.224Z,999.07
2016-09-08T01:14:54.959Z,999.14
2016-09-08T01:15:46.175Z,999.13
2016-09-08T01:16:12.661Z,999.03
2016-09-08T01:16:34.399Z,999.00
2016-09-08T01:17:00.882Z,998.99
2016-09-08T01:17:22.629Z,999.03
2016-09-08T01:17:45.394Z,999.11
2016-09-08T01:18:07.166Z,999.02
2016-09-08T01:18:32.316Z,999.06
2016-09-08T01:18:54.063Z,998.99
2016-09-08T01:19:15.820Z,998.97
2016-09-08T01:19:37.561Z,998.76
2016-09-08T01:19:59.311Z,999.04
2016-09-08T01:20:21.074Z,998.87
2016-09-08T01:20:42.844Z,999.09
2016-09-08T01:21:04.611Z,999.10
2016-09-08T01:21:26.354Z,999.09
2016-09-08T01:21:48.088Z,998.95
2016-09-08T01:22:10.820Z,999.07
2016-09-08T01:22:32.559Z,999.23
2016-09-08T01:22:54.296Z,999.05
2016-09-08T01:23:16.031Z,998.99
2016-09-08T01:23:42.543Z,999.18
2016-09-08T01:24:04.466Z,999.28
2016-09-08T01:24:26.194Z,999.31
2016-09-08T01:24:47.959Z,999.11
2016-09-08T01:25:09.679Z,999.03
2016-09-08T01:25:31.471Z,998.84
2016-09-08T01:25:53.199Z,999.12
2016-09-08T01:26:14.937Z,999.22
2016-09-08T01:26:36.703Z,999.21
2016-09-08T01:26:59.426Z,999.26
2016-09-08T01:27:21.174Z,999.21
2016-09-08T01:27:42.920Z,999.15
2016-09-08T01:28:04.642Z,999.16
2016-09-08T01:28:26.389Z,999.01
2016-09-08T01:28:48.124Z,998.79
2016-09-08T01:29:14.680Z,998.77
2016-09-08T01:29:36.408Z,999.07
2016-09-08T01:29:58.165Z,999.16
2016-09-08T01:30:19.910Z,998.92
2016-09-08T01:31:08.284Z,998.83
2016-09-08T01:31:30.146Z,999.08
2016-09-08T01:31:51.884Z,999.08
2016-09-08T01:32:13.615Z,999.26
2016-09-08T01:32:35.353Z,999.01
2016-09-08T01:32:57.097Z,998.94
2016-09-08T01:33:18.837Z,998.87
2016-09-08T01:34:07.087Z,999.08
2016-09-08T01:35:00.077Z,998.75
2016-09-08T01:35:21.819Z,998.96
2016-09-08T01:35:47.305Z,998.98
2016-09-08T01:36:09.049Z,999.09
2016-09-08T01:36:30.838Z,999.05
2016-09-08T01:36:57.324Z,998.95
2016-09-08T01:37:19.071Z,998.92
2016-09-08T01:37:43.503Z,998.95
2016-09-08T01:38:05.228Z,999.08
2016-09-08T01:38:27.007Z,999.02
2016-09-08T01:39:27.608Z,999.04
2016-09-08T01:39:54.124Z,998.94
2016-09-08T01:40:16.863Z,998.98
2016-09-08T01:40:38.598Z,998.98
2016-09-08T01:41:00.329Z,998.94
2016-09-08T01:41:22.108Z,998.94
2016-09-08T01:41:43.846Z,998.91
2016-09-08T01:42:05.586Z,998.97
2016-09-08T01:42:27.336Z,998.86
2016-09-08T01:43:20.347Z,999.01
2016-09-08T01:43:42.086Z,999.13
2016-09-08T01:44:06.470Z,999.11
2016-09-08T01:44:28.198Z,999.10
2016-09-08T01:44:49.932Z,998.94
2016-09-08T01:45:12.661Z,998.92
2016-09-08T01:45:34.414Z,998.97
2016-09-08T01:45:57.135Z,998.97
2016-09-08T01:46:18.875Z,998.95
2016-09-08T01:47:07.119Z,998.86
2016-09-08T01:47:28.844Z,998.93
2016-09-08T01:47:50.572Z,998.89
2016-09-08T01:48:40.841Z,998.97
2016-09-08T01:49:02.562Z,998.85
2016-09-08T01:49:24.287Z,998.97
2016-09-08T01:49:46.082Z,999.06
2016-09-08T01:50:08.191Z,999.05
2016-09-08T01:50:29.947Z,999.03
2016-09-08T01:50:51.669Z,999.00
2016-09-08T01:51:13.410Z,998.97
2016-09-08T01:51:35.155Z,998.92
2016-09-08T01:52:01.654Z,998.89
2016-09-08T01:52:23.402Z,998.85
2016-09-08T01:52:50.898Z,998.99
2016-09-08T01:53:12.751Z,999.01
2016-09-08T01:53:39.247Z,999.04
2016-09-08T01:54:01.980Z,998.89
2016-09-08T01:54:23.740Z,998.92
2016-09-08T01:54:45.470Z,998.92
2016-09-08T01:55:08.200Z,999.14
2016-09-08T01:55:29.942Z,999.02
2016-09-08T01:55:51.673Z,998.89
2016-09-08T01:56:13.526Z,999.13
2016-09-08T01:56:40.018Z,999.16
2016-09-08T01:57:31.183Z,999.12
2016-09-08T01:57:53.993Z,998.81
2016-09-08T01:58:15.730Z,998.72
2016-09-08T01:58:38.453Z,998.92
2016-09-08T01:59:00.185Z,998.83
2016-09-08T01:59:21.919Z,998.95
2016-09-08T01:59:43.641Z,999.07
2016-09-08T02:00:05.452Z,998.94
2016-09-08T02:00:27.195Z,998.82
2016-09-08T02:00:49.013Z,998.79
2016-09-08T02:01:11.781Z,998.82
2016-09-08T02:01:33.538Z,998.92
2016-09-08T02:02:00.093Z,999.04
2016-09-08T02:02:26.597Z,999.08
2016-09-08T02:03:14.853Z,998.90
2016-09-08T02:03:36.600Z,998.97
2016-09-08T02:03:59.333Z,998.88
2016-09-08T02:04:21.057Z,998.75
2016-09-08T02:04:42.793Z,998.81
2016-09-08T02:05:04.578Z,998.90
2016-09-08T02:05:26.313Z,998.98
2016-09-08T02:05:48.034Z,998.82
2016-09-08T02:06:09.749Z,998.97
2016-09-08T02:06:36.252Z,999.02
2016-09-08T02:06:57.980Z,998.97
2016-09-08T02:07:19.817Z,998.88
2016-09-08T02:07:41.561Z,998.87
2016-09-08T02:08:03.288Z,998.80
2016-09-08T02:08:25.033Z,998.82
2016-09-08T02:08:46.745Z,998.90
2016-09-08T02:09:08.492Z,998.87
2016-09-08T02:09:34.988Z,999.10
2016-09-08T02:09:56.719Z,998.95
2016-09-08T02:10:18.450Z,998.83
2016-09-08T02:10:40.187Z,998.85
2016-09-08T02:11:01.953Z,998.82
2016-09-08T02:11:23.673Z,998.82
2016-09-08T02:11:45.410Z,998.62
2016-09-08T02:12:07.138Z,998.83
2016-09-08T02:12:28.863Z,998.90
2016-09-08T02:12:50.588Z,998.90
2016-09-08T02:13:12.326Z,998.78
2016-09-08T02:13:34.047Z,998.71
2016-09-08T02:13:55.771Z,998.58
2016-09-08T02:14:17.510Z,998.71
2016-09-08T02:14:39.231Z,998.83
2016-09-08T02:15:01.954Z,998.85
2016-09-08T02:15:28.451Z,998.72
2016-09-08T02:15:50.194Z,998.74
2016-09-08T02:16:11.919Z,998.62
2016-09-08T02:16:33.759Z,998.83
2016-09-08T02:16:56.488Z,998.71
2016-09-08T02:17:18.239Z,998.60
2016-09-08T02:17:39.983Z,999.00
2016-09-08T02:18:01.721Z,999.21
2016-09-08T02:18:23.455Z,999.21
2016-09-08T02:18:46.181Z,998.91
2016-09-08T02:19:07.961Z,998.94
2016-09-08T02:19:29.701Z,998.86
2016-09-08T02:19:51.426Z,998.63
2016-09-08T02:20:18.127Z,998.59
2016-09-08T02:20:39.865Z,998.59
2016-09-08T02:21:06.361Z,998.47
2016-09-08T02:21:32.853Z,998.43
2016-09-08T02:21:55.571Z,998.55
2016-09-08T02:22:17.321Z,998.79
2016-09-08T02:22:39.074Z,998.97
2016-09-08T02:23:00.819Z,998.88
2016-09-08T02:23:22.549Z,998.83
2016-09-08T02:23:44.351Z,998.52
2016-09-08T02:24:06.111Z,998.55
2016-09-08T02:24:27.839Z,998.49
2016-09-08T02:24:49.653Z,998.86
2016-09-08T02:25:11.387Z,998.75
2016-09-08T02:25:33.164Z,998.95
2016-09-08T02:25:54.888Z,998.82
2016-09-08T02:26:16.611Z,998.61
2016-09-08T02:26:43.129Z,998.52
2016-09-08T02:27:09.621Z,998.51
2016-09-08T02:27:31.353Z,998.58
2016-09-08T02:27:53.131Z,998.34
2016-09-08T02:28:14.857Z,998.57
2016-09-08T02:28:36.575Z,998.63
2016-09-08T02:28:59.314Z,998.58
2016-09-08T02:29:21.045Z,998.86
2016-09-08T02:29:42.793Z,998.97
2016-09-08T02:30:04.521Z,998.78
2016-09-08T02:30:26.284Z,998.77
2016-09-08T02:30:48.028Z,998.55
2016-09-08T02:31:09.759Z,998.46
2016-09-08T02:31:31.487Z,998.58
2016-09-08T02:31:53.218Z,998.91
2016-09-08T02:32:14.949Z,998.99
2016-09-08T02:32:36.709Z,998.86
2016-09-08T02:32:58.453Z,998.56
2016-09-08T02:33:20.182Z,998.56
2016-09-08T02:33:41.914Z,998.70
2016-09-08T02:34:03.644Z,998.71
2016-09-08T02:34:25.362Z,998.88
2016-09-08T02:34:47.151Z,998.55
2016-09-08T02:35:08.872Z,998.63
2016-09-08T02:35:30.604Z,998.52
2016-09-08T02:35:53.366Z,998.53
2016-09-08T02:36:15.283Z,998.75
2016-09-08T02:36:37.014Z,998.77
2016-09-08T02:36:58.748Z,998.56
2016-09-08T02:37:20.508Z,998.44
2016-09-08T02:37:42.262Z,998.83
2016-09-08T02:38:03.996Z,998.63
2016-09-08T02:38:30.496Z,998.65
2016-09-08T02:38:52.213Z,998.57
2016-09-08T02:39:13.951Z,998.62
2016-09-08T02:39:35.683Z,998.32
2016-09-08T02:39:57.484Z,998.41
2016-09-08T02:40:19.205Z,998.55
2016-09-08T02:40:45.701Z,998.60
2016-09-08T02:41:07.430Z,998.55
2016-09-08T02:41:29.164Z,998.66
2016-09-08T02:41:50.921Z,998.89
2016-09-08T02:42:12.652Z,998.76
2016-09-08T02:42:34.372Z,998.68
2016-09-08T02:43:00.894Z,998.61
2016-09-08T02:43:22.632Z,998.62
2016-09-08T02:43:45.369Z,998.34
2016-09-08T02:44:07.110Z,998.66
2016-09-08T02:44:28.856Z,998.49
2016-09-08T02:44:51.602Z,998.56
2016-09-08T02:45:13.337Z,998.42
2016-09-08T02:45:35.058Z,998.54
2016-09-08T02:45:56.793Z,998.53
2016-09-08T02:46:18.542Z,998.44
2016-09-08T02:46:41.267Z,998.57
2016-09-08T02:47:02.987Z,998.58
2016-09-08T02:47:24.757Z,998.65
2016-09-08T02:47:46.588Z,998.66
2016-09-08T02:48:08.334Z,998.56
2016-09-08T02:48:30.059Z,998.87
2016-09-08T02:48:52.802Z,998.98
2016-09-08T02:49:14.572Z,998.84
2016-09-08T02:49:36.310Z,998.46
2016-09-08T02:49:58.047Z,998.37
2016-09-08T02:50:19.771Z,998.41
2016-09-08T02:50:41.589Z,998.30
2016-09-08T02:51:03.302Z,998.37
2016-09-08T02:51:25.119Z,998.41
2016-09-08T02:51:46.886Z,998.33
2016-09-08T02:52:08.610Z,998.30
2016-09-08T02:52:30.345Z,998.52
2016-09-08T02:52:52.095Z,998.43
2016-09-08T02:53:13.849Z,998.63
2016-09-08T02:53:35.614Z,998.57
2016-09-08T02:53:57.343Z,998.39
2016-09-08T02:54:19.087Z,998.50
2016-09-08T02:54:41.848Z,998.41
2016-09-08T02:55:03.714Z,998.44
2016-09-08T02:55:25.438Z,998.49
2016-09-08T02:55:47.180Z,998.42
2016-09-08T02:56:08.914Z,998.46
2016-09-08T02:56:30.645Z,998.45
2016-09-08T02:56:52.380Z,998.51
2016-09-08T02:57:15.103Z,998.75
2016-09-08T02:57:36.834Z,998.70
2016-09-08T02:57:58.565Z,998.60
2016-09-08T02:58:20.303Z,998.26
2016-09-08T02:58:43.039Z,998.47
2016-09-08T02:59:04.796Z,998.35
2016-09-08T02:59:26.597Z,998.69
2016-09-08T02:59:48.431Z,998.61
2016-09-08T03:00:10.153Z,998.55
2016-09-08T03:00:31.931Z,998.58
2016-09-08T03:00:53.702Z,998.61
2016-09-08T03:01:16.438Z,998.63
2016-09-08T03:01:38.175Z,998.61
2016-09-08T03:01:59.893Z,998.39
2016-09-08T03:02:21.657Z,998.42
2016-09-08T03:02:44.488Z,998.58
2016-09-08T03:03:06.220Z,998.53
2016-09-08T03:03:27.957Z,998.43
2016-09-08T03:03:49.727Z,998.61
2016-09-08T03:04:11.500Z,998.57
2016-09-08T03:04:34.309Z,998.46
2016-09-08T03:04:56.101Z,998.46
2016-09-08T03:05:24.647Z,998.37
2016-09-08T03:05:55.708Z,998.26
2016-09-08T03:06:17.459Z,998.31
2016-09-08T03:06:43.951Z,998.76
2016-09-08T03:07:06.709Z,998.90
2016-09-08T03:07:32.119Z,998.57
2016-09-08T03:07:54.857Z,998.60
2016-09-08T03:08:16.600Z,998.88
2016-09-08T03:08:38.326Z,998.85
2016-09-08T03:09:00.059Z,998.62
2016-09-08T03:09:21.788Z,998.52
2016-09-08T03:09:43.525Z,998.72
2016-09-08T03:10:05.273Z,998.54
2016-09-08T03:10:27.071Z,998.75
2016-09-08T03:10:48.813Z,998.50
2016-09-08T03:11:10.566Z,998.22
2016-09-08T03:11:32.306Z,998.44
2016-09-08T03:11:54.043Z,998.79
2016-09-08T03:12:16.012Z,999.07
2016-09-08T03:12:37.732Z,998.86
2016-09-08T03:12:59.472Z,998.40
2016-09-08T03:13:21.208Z,998.58
2016-09-08T03:13:42.949Z,998.66
2016-09-08T03:14:04.773Z,998.47
2016-09-08T03:14:26.536Z,998.41
2016-09-08T03:14:48.276Z,998.58
2016-09-08T03:15:10.018Z,998.81
2016-09-08T03:15:31.740Z,998.55
2016-09-08T03:15:53.478Z,998.64
2016-09-08T03:16:15.260Z,998.45
2016-09-08T03:16:36.987Z,998.56
2016-09-08T03:16:58.747Z,998.22
2016-09-08T03:17:20.475Z,998.21
2016-09-08T03:17:42.222Z,998.56
2016-09-08T03:18:03.955Z,998.59
2016-09-08T03:18:25.698Z,998.53
2016-09-08T03:18:47.429Z,998.52
2016-09-08T03:19:09.167Z,998.64
2016-09-08T03:19:35.669Z,998.44
2016-09-08T03:19:57.393Z,998.34
2016-09-08T03:20:19.134Z,998.37
2016-09-08T03:20:41.122Z,998.32
2016-09-08T03:21:02.844Z,998.69
2016-09-08T03:21:24.572Z,998.60
2016-09-08T03:21:46.328Z,998.66
2016-09-08T03:22:08.078Z,998.66
2016-09-08T03:22:29.811Z,998.79
2016-09-08T03:22:51.538Z,998.75
2016-09-08T03:23:13.295Z,998.65
2016-09-08T03:23:35.067Z,998.39
2016-09-08T03:23:56.830Z,998.37
2016-09-08T03:24:18.585Z,998.41
2016-09-08T03:24:40.319Z,998.46
2016-09-08T03:25:02.079Z,998.32
2016-09-08T03:25:23.816Z,998.82
2016-09-08T03:26:12.060Z,998.51
2016-09-08T03:26:33.797Z,998.48
2016-09-08T03:26:55.544Z,998.69
2016-09-08T03:27:17.350Z,998.41
2016-09-08T03:27:39.070Z,998.43
2016-09-08T03:28:00.841Z,998.43
2016-09-08T03:28:22.632Z,998.31
2016-09-08T03:28:44.357Z,998.65
2016-09-08T03:29:06.091Z,998.67
2016-09-08T03:29:27.818Z,998.80
2016-09-08T03:29:49.548Z,998.54
2016-09-08T03:30:11.286Z,998.52
2016-09-08T03:30:33.089Z,998.47
2016-09-08T03:30:54.808Z,998.60
2016-09-08T03:31:16.539Z,998.50
2016-09-08T03:31:39.317Z,998.63
2016-09-08T03:32:01.029Z,998.63
2016-09-08T03:32:22.763Z,998.52
2016-09-08T03:32:44.485Z,998.50
2016-09-08T03:33:06.213Z,998.55
2016-09-08T03:33:28.939Z,998.43
2016-09-08T03:33:50.678Z,998.50
2016-09-08T03:34:12.412Z,998.67
2016-09-08T03:34:34.148Z,998.50
2016-09-08T03:34:55.874Z,998.55
2016-09-08T03:35:17.619Z,998.28
2016-09-08T03:35:40.392Z,998.30
2016-09-08T03:36:02.134Z,998.26
2016-09-08T03:36:23.867Z,998.34
2016-09-08T03:36:45.598Z,998.56
2016-09-08T03:37:07.328Z,998.62
2016-09-08T03:37:29.080Z,998.62
2016-09-08T03:37:50.879Z,998.58
2016-09-08T03:38:12.770Z,998.58
2016-09-08T03:38:34.511Z,998.74
2016-09-08T03:38:56.254Z,998.56
2016-09-08T03:39:17.970Z,998.39
2016-09-08T03:39:39.823Z,998.21
2016-09-08T03:40:01.621Z,998.77
2016-09-08T03:40:23.355Z,998.64
2016-09-08T03:40:45.094Z,998.43
2016-09-08T03:41:06.831Z,998.84
2016-09-08T03:41:33.327Z,998.90
2016-09-08T03:41:56.049Z,998.67
2016-09-08T03:42:17.778Z,998.63
2016-09-08T03:42:44.265Z,998.50
2016-09-08T03:43:06.008Z,998.54
2016-09-08T03:43:27.740Z,998.61
2016-09-08T03:43:49.464Z,998.56
2016-09-08T03:44:11.205Z,998.28
2016-09-08T03:44:37.711Z,998.46
2016-09-08T03:45:00.430Z,998.28
2016-09-08T03:45:22.175Z,998.37
2016-09-08T03:45:43.898Z,998.40
2016-09-08T03:46:05.640Z,998.38
2016-09-08T03:46:27.381Z,998.57
2016-09-08T03:46:49.125Z,998.28
2016-09-08T03:47:10.862Z,998.73
2016-09-08T03:47:32.594Z,998.60
2016-09-08T03:47:54.325Z,998.64
2016-09-08T03:48:16.053Z,998.28
2016-09-08T03:48:37.784Z,998.51
2016-09-08T03:48:59.522Z,998.48
2016-09-08T03:49:21.256Z,998.30
2016-09-08T03:49:43.105Z,998.54
2016-09-08T03:50:04.860Z,998.35
2016-09-08T03:50:26.591Z,998.90
2016-09-08T03:50:48.312Z,998.70
2016-09-08T03:51:10.065Z,998.49
2016-09-08T03:51:31.787Z,998.58
2016-09-08T03:51:53.538Z,998.66
2016-09-08T03:52:15.259Z,998.58
2016-09-08T03:52:36.984Z,998.76
2016-09-08T03:52:58.792Z,998.88
2016-09-08T03:53:20.520Z,998.53
2016-09-08T03:53:42.268Z,999.03
2016-09-08T03:54:04.015Z,998.78
2016-09-08T03:54:26.849Z,998.42
2016-09-08T03:54:48.619Z,998.67
2016-09-08T03:55:10.341Z,998.34
2016-09-08T03:55:32.091Z,998.35
2016-09-08T03:55:53.842Z,998.55
2016-09-08T03:56:16.571Z,998.65
2016-09-08T03:56:38.312Z,998.45
2016-09-08T03:57:00.044Z,998.81
2016-09-08T03:57:21.769Z,998.77
2016-09-08T03:57:43.509Z,998.88
2016-09-08T03:58:05.275Z,998.47
2016-09-08T03:58:27.013Z,998.38
2016-09-08T03:58:48.785Z,998.61
2016-09-08T03:59:10.514Z,998.59
2016-09-08T03:59:32.245Z,998.68
2016-09-08T03:59:53.976Z,998.44
2016-09-08T04:00:15.719Z,998.51
2016-09-08T04:00:37.447Z,998.39
2016-09-08T04:00:59.212Z,998.50
2016-09-08T04:01:20.955Z,998.45
2016-09-08T04:01:43.691Z,998.56
2016-09-08T04:02:05.419Z,998.56
2016-09-08T04:02:27.170Z,998.50
2016-09-08T04:02:48.923Z,998.43
2016-09-08T04:03:10.648Z,998.78
2016-09-08T04:03:32.369Z,998.72
2016-09-08T04:03:54.110Z,998.60
2016-09-08T04:04:15.864Z,998.78
2016-09-08T04:04:37.666Z,998.71
2016-09-08T04:04:59.416Z,998.85
2016-09-08T04:05:21.182Z,998.75
2016-09-08T04:05:42.981Z,998.77
2016-09-08T04:06:04.719Z,998.80
2016-09-08T04:06:31.240Z,998.51
2016-09-08T04:06:52.985Z,998.33
2016-09-08T04:07:14.709Z,998.42
2016-09-08T04:07:36.588Z,998.29
2016-09-08T04:07:58.303Z,998.32
2016-09-08T04:08:20.043Z,998.57
2016-09-08T04:08:41.778Z,998.44
2016-09-08T04:09:03.508Z,998.44
2016-09-08T04:09:25.244Z,998.53
2016-09-08T04:09:46.981Z,998.54
2016-09-08T04:10:08.735Z,998.50
2016-09-08T04:10:30.460Z,998.75
2016-09-08T04:10:52.197Z,998.79
2016-09-08T04:11:13.915Z,998.69
2016-09-08T04:11:35.682Z,998.68
2016-09-08T04:11:57.407Z,998.57
2016-09-08T04:12:19.142Z,998.37
2016-09-08T04:12:40.869Z,998.32
2016-09-08T04:13:02.600Z,998.52
2016-09-08T04:13:24.338Z,998.41
2016-09-08T04:13:46.066Z,998.76
2016-09-08T04:14:07.791Z,998.47
2016-09-08T04:14:29.505Z,998.34
2016-09-08T04:14:51.257Z,998.88
2016-09-08T04:15:12.988Z,998.77
2016-09-08T04:15:34.779Z,998.59
2016-09-08T04:15:56.505Z,998.55
2016-09-08T04:16:18.229Z,998.57
2016-09-08T04:16:39.954Z,998.49
2016-09-08T04:17:01.692Z,998.20
2016-09-08T04:17:23.416Z,998.34
2016-09-08T04:17:45.167Z,998.43
2016-09-08T04:18:06.885Z,998.41
2016-09-08T04:18:28.614Z,998.46
2016-09-08T04:18:50.338Z,999.03
2016-09-08T04:19:12.079Z,998.97
2016-09-08T04:19:33.807Z,998.85
2016-09-08T04:19:55.547Z,998.50
2016-09-08T04:20:17.282Z,998.60
2016-09-08T04:20:39.017Z,998.34
2016-09-08T04:21:00.758Z,998.77
2016-09-08T04:21:22.475Z,998.92
2016-09-08T04:21:44.210Z,998.81
2016-09-08T04:22:05.961Z,998.54
2016-09-08T04:22:27.682Z,998.58
2016-09-08T04:22:49.457Z,998.39
2016-09-08T04:23:11.199Z,998.56
2016-09-08T04:23:32.922Z,998.55
2016-09-08T04:23:54.668Z,998.54
2016-09-08T04:24:16.409Z,998.71
2016-09-08T04:24:38.127Z,998.88
2016-09-08T04:24:59.838Z,998.60
2016-09-08T04:25:21.569Z,998.38
2016-09-08T04:25:43.292Z,998.51
2016-09-08T04:26:05.013Z,998.76
2016-09-08T04:26:26.760Z,998.80
2016-09-08T04:26:48.498Z,998.77
2016-09-08T04:27:10.229Z,998.74
2016-09-08T04:27:31.979Z,998.75
2016-09-08T04:27:53.710Z,998.56
2016-09-08T04:28:15.439Z,998.58
2016-09-08T04:28:37.163Z,998.40
2016-09-08T04:28:58.904Z,998.56
2016-09-08T04:29:20.632Z,998.47
2016-09-08T04:29:42.357Z,998.48
2016-09-08T04:30:04.085Z,998.25
2016-09-08T04:30:25.806Z,998.46
2016-09-08T04:30:47.554Z,998.54
2016-09-08T04:31:14.072Z,998.66
2016-09-08T04:31:35.833Z,998.42
2016-09-08T04:31:57.580Z,998.30
2016-09-08T04:32:19.291Z,998.45
2016-09-08T04:32:41.035Z,998.49
2016-09-08T04:33:02.767Z,998.49
2016-09-08T04:33:24.495Z,998.54
2016-09-08T04:33:46.226Z,998.73
2016-09-08T04:34:09.023Z,998.83
2016-09-08T04:34:30.751Z,998.30
2016-09-08T04:34:52.472Z,998.39
2016-09-08T04:35:14.203Z,998.64
2016-09-08T04:35:35.935Z,998.66
2016-09-08T04:36:02.446Z,998.47
2016-09-08T04:36:24.184Z,998.46
2016-09-08T04:36:45.915Z,998.38
2016-09-08T04:37:08.642Z,998.59
2016-09-08T04:37:30.380Z,998.56
2016-09-08T04:37:52.114Z,998.72
2016-09-08T04:38:14.847Z,998.67
2016-09-08T04:38:36.593Z,998.81
2016-09-08T04:39:29.579Z,998.62
2016-09-08T04:39:51.333Z,998.51
2016-09-08T04:40:17.810Z,998.53
2016-09-08T04:40:39.560Z,998.59
2016-09-08T04:41:01.302Z,998.40
2016-09-08T04:41:23.041Z,998.28
2016-09-08T04:41:44.776Z,998.52
2016-09-08T04:42:06.511Z,998.27
2016-09-08T04:42:28.243Z,998.29
2016-09-08T04:42:49.976Z,998.36
2016-09-08T04:43:11.716Z,998.48
2016-09-08T04:43:33.442Z,998.64
2016-09-08T04:44:26.434Z,998.80
2016-09-08T04:45:14.655Z,998.74
2016-09-08T04:45:36.383Z,998.70
2016-09-08T04:45:58.120Z,998.55
2016-09-08T04:46:19.852Z,998.42
2016-09-08T04:46:41.573Z,998.37